Time;durP1;ratioP1;P1;durP2;ratioP2;P2;SDS_P1;SDS_P2;PMS_P1;PMS_P2;Temp;Humidity;BMP_temperature;BMP_pressure;BME280_temperature;BME280_humidity;BME280_pressure;Samples;Min_cycle;Max_cycle;Signal;HPM_P1;HPM_P2
2023/12/25 00:01:16;;;;;;;1.13;1.13;;;;;;;7.39;96.82;99236.44;5072510;28;20196;-68
2023/12/25 00:03:43;;;;;;;2.00;1.90;;;;;;;7.45;96.55;99244.84;5072371;28;20753;-68
2023/12/25 00:06:09;;;;;;;3.27;1.73;;;;;;;7.48;96.45;99234.56;5072159;28;20212;-68
2023/12/25 00:08:36;;;;;;;0.97;0.97;;;;;;;7.55;96.26;99236.13;5073659;28;20192;-68
2023/12/25 00:11:03;;;;;;;1.10;1.10;;;;;;;7.59;96.34;99245.41;5072116;28;20196;-68
2023/12/25 00:13:29;;;;;;;1.00;1.00;;;;;;;7.60;96.03;99234.31;5072741;28;20192;-68
2023/12/25 00:15:58;;;;;;;1.13;1.13;;;;;;;7.56;95.98;99233.53;5072787;28;20200;-68
2023/12/25 00:18:24;;;;;;;1.53;1.20;;;;;;;7.46;96.11;99232.06;5072133;28;20204;-68
2023/12/25 00:20:51;;;;;;;2.43;0.87;;;;;;;7.45;96.12;99234.63;5071931;28;20246;-68
2023/12/25 00:23:18;;;;;;;0.90;0.90;;;;;;;7.44;96.41;99228.69;5071994;28;20208;-68
2023/12/25 00:25:45;;;;;;;1.43;1.43;;;;;;;7.43;96.31;99231.28;5073161;28;20326;-68
2023/12/25 00:28:11;;;;;;;1.73;1.40;;;;;;;7.27;96.70;99202.72;5071740;28;20329;-69
2023/12/25 00:30:38;;;;;;;1.23;1.23;;;;;;;7.42;96.81;99229.59;5071913;28;20200;-68
2023/12/25 00:33:06;;;;;;;1.33;1.33;;;;;;;7.42;96.63;99224.50;5071452;28;20200;-68
2023/12/25 00:35:33;;;;;;;0.80;0.80;;;;;;;7.44;96.73;99220.19;5071311;28;20246;-68
2023/12/25 00:38:00;;;;;;;1.47;1.40;;;;;;;7.45;96.71;99220.19;5072098;28;20200;-68
2023/12/25 00:40:26;;;;;;;5.93;1.27;;;;;;;7.39;96.40;99225.41;5071414;28;20196;-68
2023/12/25 00:42:53;;;;;;;2.00;1.33;;;;;;;7.32;96.18;99216.19;5071509;28;20196;-68
2023/12/25 00:45:21;;;;;;;1.70;1.70;;;;;;;7.37;96.63;99222.88;5069306;28;20641;-68
2023/12/25 00:47:47;;;;;;;1.13;1.07;;;;;;;7.36;96.41;99223.78;5071464;28;20657;-68
2023/12/25 00:50:15;;;;;;;0.90;0.90;;;;;;;7.34;96.62;99225.50;5069347;28;20196;-68
2023/12/25 00:52:42;;;;;;;1.10;1.10;;;;;;;7.31;96.62;99228.09;5070886;28;20288;-68
2023/12/25 00:55:09;;;;;;;1.27;1.27;;;;;;;7.31;96.62;99237.47;5074304;28;20815;-68
2023/12/25 00:57:36;;;;;;;1.47;1.37;;;;;;;7.23;96.84;99214.69;5071120;28;20265;-68
2023/12/25 01:00:03;;;;;;;1.00;1.00;;;;;;;7.23;96.99;99237.63;5071411;28;20257;-68
2023/12/25 01:02:29;;;;;;;2.30;1.40;;;;;;;7.00;97.65;99224.47;5071182;28;20282;-68
2023/12/25 01:04:56;;;;;;;2.00;1.53;;;;;;;7.06;98.32;99232.00;5073209;28;20253;-68
2023/12/25 01:07:24;;;;;;;1.07;1.07;;;;;;;7.06;98.67;99237.09;5074864;28;20200;-68
2023/12/25 01:09:51;;;;;;;2.93;1.10;;;;;;;7.07;98.44;99233.69;5071172;28;20200;-68
2023/12/25 01:12:18;;;;;;;1.20;1.20;;;;;;;7.10;98.05;99228.53;5071132;28;20618;-68
2023/12/25 01:14:45;;;;;;;0.93;0.93;;;;;;;7.00;98.21;99201.53;5072636;28;20388;-68
2023/12/25 01:17:11;;;;;;;10.07;1.53;;;;;;;7.08;98.22;99209.00;5070751;28;20649;-68
2023/12/25 01:19:38;;;;;;;2.93;1.07;;;;;;;7.07;98.19;99208.19;5070990;28;20196;-68
2023/12/25 01:22:05;;;;;;;1.97;1.97;;;;;;;7.03;98.54;99206.56;5070963;28;20269;-68
2023/12/25 01:24:33;;;;;;;2.10;2.00;;;;;;;7.03;98.39;99206.56;5072913;28;20258;-69
2023/12/25 01:27:00;;;;;;;1.37;1.03;;;;;;;6.98;98.32;99193.06;5071168;28;20679;-69
2023/12/25 01:29:27;;;;;;;3.40;1.57;;;;;;;7.00;98.23;99206.63;5070312;28;20664;-68
2023/12/25 01:31:53;;;;;;;1.77;1.67;;;;;;;6.88;98.55;99189.03;5071118;28;20204;-68
2023/12/25 01:34:20;;;;;;;2.30;2.20;;;;;;;6.84;98.91;99200.13;5070810;28;20211;-68
2023/12/25 01:36:47;;;;;;;1.00;1.00;;;;;;;6.78;99.39;99195.16;5069569;28;20192;-68
2023/12/25 01:39:13;;;;;;;1.17;1.17;;;;;;;6.73;99.44;99197.78;5070880;28;20262;-68
2023/12/25 01:41:42;;;;;;;1.03;1.03;;;;;;;6.73;99.31;99194.38;5071024;28;20200;-68
2023/12/25 01:44:08;;;;;;;0.97;0.97;;;;;;;6.73;99.73;99192.69;5070868;28;20196;-68
2023/12/25 01:46:36;;;;;;;1.10;1.10;;;;;;;6.74;99.58;99189.28;5076015;28;20273;-68
2023/12/25 01:49:02;;;;;;;1.53;1.43;;;;;;;6.76;99.15;99195.19;5070676;28;20200;-68
2023/12/25 01:51:29;;;;;;;0.70;0.70;;;;;;;6.80;99.06;99190.88;5070333;28;20227;-68
2023/12/25 01:53:56;;;;;;;3.30;1.53;;;;;;;6.79;99.33;99192.56;5070727;28;20254;-68
2023/12/25 01:56:23;;;;;;;1.40;1.30;;;;;;;6.81;98.76;99195.09;5072825;28;20254;-68
2023/12/25 01:58:51;;;;;;;0.87;0.87;;;;;;;6.80;99.30;99190.88;5070638;28;20257;-68
2023/12/25 02:01:18;;;;;;;0.90;0.87;;;;;;;6.82;99.00;99189.97;5070728;28;20204;-68
2023/12/25 02:03:45;;;;;;;1.10;1.10;;;;;;;6.83;99.00;99193.34;5070243;28;20241;-68
2023/12/25 02:06:13;;;;;;;1.40;1.40;;;;;;;6.86;98.08;99189.03;5070331;28;20303;-68
2023/12/25 02:08:40;;;;;;;3.07;1.50;;;;;;;6.82;98.06;99177.22;5070264;28;20725;-68
2023/12/25 02:11:07;;;;;;;0.93;0.93;;;;;;;6.84;98.48;99164.47;5070854;28;20249;-68
2023/12/25 02:13:33;;;;;;;0.80;0.80;;;;;;;6.77;98.54;99178.19;5070167;28;20204;-68
2023/12/25 02:16:02;;;;;;;0.80;0.80;;;;;;;6.73;99.08;99166.38;5073442;28;20745;-68
2023/12/25 02:18:29;;;;;;;2.00;1.67;;;;;;;6.74;99.21;99180.78;5070156;28;20196;-68
2023/12/25 02:20:56;;;;;;;1.70;1.60;;;;;;;6.73;99.16;99179.09;5070542;28;20227;-68
2023/12/25 02:23:26;;;;;;;0.70;0.70;;;;;;;6.72;99.55;99183.34;5070330;28;20277;-68
2023/12/25 02:25:57;;;;;;;0.70;0.70;;;;;;;6.71;99.82;99180.84;5070698;28;20277;-68
2023/12/25 02:28:24;;;;;;;1.57;1.53;;;;;;;6.76;99.68;99176.50;5070321;28;20580;-68
2023/12/25 02:30:52;;;;;;;1.07;1.07;;;;;;;6.79;99.47;99184.94;5069194;28;20337;-68
2023/12/25 02:33:18;;;;;;;1.33;1.33;;;;;;;6.75;99.14;99167.19;5070400;28;20200;-68
2023/12/25 02:35:45;;;;;;;2.53;1.07;;;;;;;6.80;99.03;99178.13;5070883;28;20200;-68
2023/12/25 02:38:12;;;;;;;4.37;1.47;;;;;;;6.75;98.55;99170.56;5070009;28;20196;-68
2023/12/25 02:40:39;;;;;;;1.40;1.40;;;;;;;6.77;98.58;99173.09;5070551;28;20664;-68
2023/12/25 02:43:08;;;;;;;0.60;0.60;;;;;;;6.72;98.76;99168.06;5073827;28;20671;-68
2023/12/25 02:45:35;;;;;;;1.43;1.43;;;;;;;6.74;98.60;99178.25;5074299;28;20285;-68
2023/12/25 02:48:02;;;;;;;1.00;1.00;;;;;;;6.72;98.45;99182.53;5072893;28;20550;-68
2023/12/25 02:50:29;;;;;;;0.93;0.93;;;;;;;6.67;98.90;99189.41;5070273;28;20196;-68
2023/12/25 02:52:56;;;;;;;1.20;1.20;;;;;;;6.55;99.76;99187.09;5073399;28;20227;-68
2023/12/25 02:55:22;;;;;;;0.90;0.90;;;;;;;6.15;100.00;99181.81;5074855;28;20204;-68
2023/12/25 02:57:49;;;;;;;1.53;1.43;;;;;;;6.27;100.00;99197.72;5073555;28;20206;-68
2023/12/25 03:00:18;;;;;;;1.00;1.00;;;;;;;6.16;100.00;99199.59;5073288;28;20195;-68
2023/12/25 03:02:45;;;;;;;2.67;1.63;;;;;;;6.02;100.00;99198.13;5071522;28;20269;-68
2023/12/25 03:05:11;;;;;;;1.07;1.07;;;;;;;5.97;100.00;99195.66;5073788;28;20208;-68
2023/12/25 03:07:38;;;;;;;0.63;0.63;;;;;;;5.97;100.00;99182.09;5073532;28;20207;-68
2023/12/25 03:10:06;;;;;;;0.83;0.83;;;;;;;6.06;100.00;99192.97;5072093;28;20257;-68
2023/12/25 03:12:32;;;;;;;1.50;0.70;;;;;;;6.08;100.00;99186.16;5073221;28;20200;-68
2023/12/25 03:14:59;;;;;;;2.60;1.27;;;;;;;6.11;100.00;99196.28;5073165;28;20265;-68
2023/12/25 03:17:27;;;;;;;1.30;1.03;;;;;;;6.10;100.00;99194.63;5073341;28;20196;-68
2023/12/25 03:19:54;;;;;;;1.13;1.13;;;;;;;5.94;100.00;99190.63;5073100;28;20203;-68
2023/12/25 03:22:21;;;;;;;1.30;1.30;;;;;;;5.80;100.00;99188.25;5073183;28;20192;-68
2023/12/25 03:24:47;;;;;;;1.83;1.47;;;;;;;5.72;100.00;99181.56;5074158;28;20200;-68
2023/12/25 03:27:14;;;;;;;2.77;1.30;;;;;;;5.68;100.00;99185.88;5072632;28;20273;-68
2023/12/25 03:29:41;;;;;;;1.13;1.13;;;;;;;5.76;100.00;99178.97;5073225;28;20626;-68
2023/12/25 03:32:07;;;;;;;1.03;1.03;;;;;;;5.76;100.00;99188.28;5072754;28;20204;-68
2023/12/25 03:34:45;;;;;;;0.97;0.93;;;;;;;5.66;100.00;99191.81;5072869;28;20196;-68
2023/12/25 03:37:12;;;;;;;1.10;1.07;;;;;;;5.72;100.00;99196.81;5072270;28;20237;-68
2023/12/25 03:39:39;;;;;;;1.20;1.20;;;;;;;5.75;100.00;99179.81;5072619;28;20249;-68
2023/12/25 03:42:06;;;;;;;1.60;1.50;;;;;;;5.83;100.00;99184.81;5072606;28;20200;-68
2023/12/25 03:44:32;;;;;;;1.73;1.73;;;;;;;5.75;100.00;99172.19;5072885;28;20203;-68
2023/12/25 03:46:59;;;;;;;1.87;1.87;;;;;;;5.92;100.00;99194.88;5074458;28;20275;-68
2023/12/25 03:49:26;;;;;;;1.33;1.33;;;;;;;5.85;100.00;99198.34;5072422;28;20204;-68
2023/12/25 03:51:55;;;;;;;1.47;1.37;;;;;;;5.84;100.00;99206.84;5072171;28;20330;-68
2023/12/25 03:54:22;;;;;;;1.30;1.30;;;;;;;5.84;100.00;99201.75;5072307;28;20196;-68
2023/12/25 03:56:49;;;;;;;1.80;1.70;;;;;;;5.79;100.00;99209.44;5074752;28;20688;-68
2023/12/25 03:59:15;;;;;;;1.30;1.30;;;;;;;5.70;100.00;99191.78;5072477;28;20200;-68
2023/12/25 04:01:42;;;;;;;0.60;0.60;;;;;;;5.70;100.00;99208.72;5072480;28;20200;-68
2023/12/25 04:04:09;;;;;;;2.50;1.97;;;;;;;5.50;100.00;99187.81;5072296;28;20200;-68
2023/12/25 04:06:35;;;;;;;1.23;1.23;;;;;;;5.63;100.00;99207.97;5071917;28;20307;-68
2023/12/25 04:09:04;;;;;;;0.73;0.73;;;;;;;5.63;100.00;99205.44;5074157;28;20196;-68
2023/12/25 04:11:31;;;;;;;0.70;0.70;;;;;;;5.76;100.00;99204.41;5073077;28;20200;-68
2023/12/25 04:13:57;;;;;;;0.80;0.80;;;;;;;5.81;100.00;99199.25;5072191;28;20199;-68
2023/12/25 04:16:26;;;;;;;0.60;0.60;;;;;;;5.86;100.00;99194.13;5072069;28;20199;-68
2023/12/25 04:18:53;;;;;;;0.93;0.93;;;;;;;5.95;100.00;99192.28;5072013;28;20667;-68
2023/12/25 04:21:24;;;;;;;0.60;0.60;;;;;;;6.05;100.00;99195.53;5071667;28;20250;-68
2023/12/25 04:23:51;;;;;;;0.60;0.60;;;;;;;6.05;100.00;99191.28;5073444;28;20207;-68
2023/12/25 04:26:20;;;;;;;0.63;0.63;;;;;;;6.09;100.00;99190.38;5071992;28;20706;-68
2023/12/25 04:28:47;;;;;;;0.97;0.97;;;;;;;6.25;100.00;99194.38;5071918;28;20212;-68
2023/12/25 04:31:14;;;;;;;5.80;1.83;;;;;;;6.39;100.00;99200.94;5071928;28;20737;-68
2023/12/25 04:33:40;;;;;;;0.93;0.93;;;;;;;6.49;100.00;99198.22;5071532;28;20284;-68
2023/12/25 04:36:08;;;;;;;0.87;0.87;;;;;;;6.65;100.00;99188.59;5071675;28;20246;-68
2023/12/25 04:38:35;;;;;;;0.60;0.60;;;;;;;6.77;100.00;99188.38;5071619;28;20197;-68
2023/12/25 04:41:02;;;;;;;0.80;0.80;;;;;;;6.78;100.00;99180.72;5071557;28;20296;-69
2023/12/25 04:43:30;;;;;;;0.80;0.80;;;;;;;6.85;100.00;99206.91;5067587;28;20212;-68
2023/12/25 04:45:57;;;;;;;0.70;0.70;;;;;;;6.84;100.00;99217.97;5072652;28;20196;-68
2023/12/25 04:48:23;;;;;;;0.97;0.97;;;;;;;6.89;100.00;99213.63;5071348;28;20199;-68
2023/12/25 04:50:50;;;;;;;0.50;0.50;;;;;;;6.86;100.00;99213.69;5071387;28;20938;-68
2023/12/25 04:53:17;;;;;;;0.63;0.63;;;;;;;6.86;100.00;99211.13;5067729;28;20622;-68
2023/12/25 04:55:44;;;;;;;0.80;0.80;;;;;;;6.84;100.00;99215.44;5072163;28;20246;-68
2023/12/25 04:58:10;;;;;;;2.83;0.80;;;;;;;6.78;100.00;99200.25;5071960;28;20192;-68
2023/12/25 05:00:39;;;;;;;1.20;1.20;;;;;;;6.83;100.00;99219.69;5071252;28;20206;-68
2023/12/25 05:03:05;;;;;;;0.60;0.60;;;;;;;6.79;100.00;99218.03;5075282;28;20197;-68
2023/12/25 05:05:32;;;;;;;1.10;1.10;;;;;;;6.71;100.00;99204.63;5070953;28;20200;-68
2023/12/25 05:07:59;;;;;;;0.70;0.70;;;;;;;6.74;100.00;99208.81;5071051;28;20687;-68
2023/12/25 05:10:26;;;;;;;0.90;0.90;;;;;;;6.74;100.00;99203.72;5070840;28;20262;-68
2023/12/25 05:12:52;;;;;;;1.00;1.00;;;;;;;6.74;100.00;99213.91;5072981;28;20211;-68
2023/12/25 05:15:19;;;;;;;1.03;1.03;;;;;;;6.76;100.00;99219.81;5071117;28;20257;-68
2023/12/25 05:17:47;;;;;;;0.60;0.60;;;;;;;6.75;100.00;99210.50;5070743;28;20192;-68
2023/12/25 05:20:14;;;;;;;0.80;0.80;;;;;;;6.74;100.00;99219.84;5070873;28;20200;-68
2023/12/25 05:22:41;;;;;;;0.70;0.70;;;;;;;6.70;100.00;99218.22;5073496;28;20196;-68
2023/12/25 05:25:07;;;;;;;0.87;0.87;;;;;;;6.71;100.00;99211.41;5070825;28;20749;-68
2023/12/25 05:27:34;;;;;;;1.63;1.57;;;;;;;6.68;100.00;99225.06;5070908;28;20212;-68
2023/12/25 05:30:01;;;;;;;0.60;0.60;;;;;;;6.57;100.00;99205.72;5069279;28;20199;-68
2023/12/25 05:32:30;;;;;;;6.73;2.13;;;;;;;6.54;100.00;99233.78;5072035;28;20234;-68
2023/12/25 05:34:58;;;;;;;0.70;0.70;;;;;;;6.43;100.00;99222.94;5070889;28;20204;-68
2023/12/25 05:37:25;;;;;;;0.77;0.77;;;;;;;6.36;100.00;99226.44;5073735;28;20192;-68
2023/12/25 05:39:51;;;;;;;2.97;0.80;;;;;;;6.29;100.00;99226.56;5070675;28;20310;-68
2023/12/25 05:42:19;;;;;;;0.70;0.70;;;;;;;6.25;100.00;99214.72;5074037;28;20200;-68
2023/12/25 05:44:45;;;;;;;1.00;1.00;;;;;;;6.24;100.00;99218.13;5070770;28;20231;-68
2023/12/25 05:47:13;;;;;;;1.60;1.60;;;;;;;6.25;100.00;99224.91;5070847;28;20211;-68
2023/12/25 05:49:40;;;;;;;1.27;0.80;;;;;;;6.17;100.00;99216.53;5066945;28;20278;-68
2023/12/25 05:52:08;;;;;;;1.80;1.27;;;;;;;6.28;100.00;99232.50;5074041;28;20228;-68
2023/12/25 05:54:35;;;;;;;0.87;0.87;;;;;;;6.08;100.00;99211.59;5074478;28;20257;-68
2023/12/25 05:57:01;;;;;;;0.70;0.70;;;;;;;6.22;100.00;99235.13;5070514;28;20561;-68
2023/12/25 05:59:28;;;;;;;0.93;0.93;;;;;;;6.23;100.00;99226.66;5070483;28;20200;-68
2023/12/25 06:01:55;;;;;;;0.50;0.50;;;;;;;6.26;100.00;99221.50;5074953;28;20199;-68
2023/12/25 06:04:22;;;;;;;1.07;1.07;;;;;;;6.32;100.00;99213.78;5070292;28;20199;-68
2023/12/25 06:06:48;;;;;;;0.70;0.70;;;;;;;6.46;100.00;99210.16;5070624;28;20270;-68
2023/12/25 06:09:17;;;;;;;0.70;0.70;;;;;;;6.51;100.00;99195.63;5070431;28;20726;-68
2023/12/25 06:11:43;;;;;;;1.10;1.10;;;;;;;6.59;100.00;99189.53;5070404;28;21554;-68
2023/12/25 06:14:10;;;;;;;1.47;1.37;;;;;;;6.70;100.00;99176.63;5070633;28;20204;-68
2023/12/25 06:16:37;;;;;;;0.80;0.80;;;;;;;6.73;100.00;99186.75;5073834;28;20193;-68
2023/12/25 06:19:03;;;;;;;0.73;0.73;;;;;;;6.77;100.00;99193.47;5074611;28;20262;-68
2023/12/25 06:21:30;;;;;;;0.60;0.60;;;;;;;6.86;100.00;99185.66;5074628;28;20635;-68
2023/12/25 06:23:58;;;;;;;0.70;0.70;;;;;;;6.91;100.00;99206.81;5074705;28;20203;-68
2023/12/25 06:26:26;;;;;;;0.87;0.77;;;;;;;6.99;100.00;99206.66;5074084;28;20797;-68
2023/12/25 06:28:52;;;;;;;0.93;0.93;;;;;;;7.06;100.00;99221.81;5074115;28;20203;-68
2023/12/25 06:31:19;;;;;;;1.50;1.50;;;;;;;7.14;100.00;99230.13;5073790;28;20283;-68
2023/12/25 06:33:46;;;;;;;0.70;0.70;;;;;;;7.19;100.00;99207.97;5074230;28;20203;-68
2023/12/25 06:36:13;;;;;;;1.07;1.07;;;;;;;7.29;100.00;99218.81;5074188;28;20607;-68
2023/12/25 06:38:39;;;;;;;1.30;0.70;;;;;;;7.37;100.00;99233.06;5070875;28;20188;-68
2023/12/25 06:41:06;;;;;;;0.60;0.60;;;;;;;7.45;100.00;99239.75;5071501;28;20638;-68
2023/12/25 06:43:34;;;;;;;0.90;0.90;;;;;;;7.51;100.00;99234.50;5073550;28;20261;-68
2023/12/25 06:46:01;;;;;;;0.77;0.70;;;;;;;7.70;100.00;99240.91;5077006;28;20200;-68
2023/12/25 06:48:28;;;;;;;0.87;0.87;;;;;;;7.88;99.72;99240.53;5073701;28;20680;-68
2023/12/25 06:50:55;;;;;;;0.57;0.57;;;;;;;8.05;97.71;99228.22;5075162;28;20204;-68
2023/12/25 06:53:22;;;;;;;0.70;0.70;;;;;;;8.45;96.35;99235.81;5075184;28;20192;-68
2023/12/25 06:55:49;;;;;;;2.10;1.30;;;;;;;8.58;95.96;99239.75;5081445;28;20199;-68
2023/12/25 06:58:15;;;;;;;1.13;1.13;;;;;;;8.48;95.89;99233.19;5080187;28;20245;-68
2023/12/25 07:00:43;;;;;;;0.70;0.70;;;;;;;8.54;96.68;99232.19;5074179;28;20203;-68
2023/12/25 07:03:10;;;;;;;0.87;0.87;;;;;;;8.56;96.83;99238.13;5068386;28;20196;-68
2023/12/25 07:05:37;;;;;;;0.60;0.60;;;;;;;8.54;97.19;99258.59;5078450;28;20261;-68
2023/12/25 07:08:05;;;;;;;0.80;0.80;;;;;;;8.53;97.82;99256.09;5079372;28;20208;-68
2023/12/25 07:10:32;;;;;;;1.03;1.03;;;;;;;8.64;98.19;99254.09;5079197;28;20199;-68
2023/12/25 07:12:58;;;;;;;1.27;1.27;;;;;;;8.67;97.84;99271.91;5073267;28;20253;-68
2023/12/25 07:15:28;;;;;;;3.10;1.03;;;;;;;8.64;97.81;99271.97;5073381;28;20202;-68
2023/12/25 07:17:56;;;;;;;0.70;0.70;;;;;;;8.67;96.85;99288.06;5073196;28;20242;-68
2023/12/25 07:20:23;;;;;;;0.93;0.93;;;;;;;8.70;97.49;99284.59;5075125;28;20196;-68
2023/12/25 07:22:49;;;;;;;1.07;1.07;;;;;;;8.83;96.58;99278.31;5072941;28;20196;-68
2023/12/25 07:25:16;;;;;;;1.00;1.00;;;;;;;8.92;95.83;99281.47;5076033;28;20262;-68
2023/12/25 07:27:43;;;;;;;1.47;1.37;;;;;;;9.06;94.68;99278.56;5072212;28;20208;-68
2023/12/25 07:30:11;;;;;;;5.10;2.53;;;;;;;9.19;92.83;99285.03;5071714;28;20196;-68
2023/12/25 07:32:37;;;;;;;2.53;2.33;;;;;;;9.32;91.14;99291.50;5074301;28;20199;-68
2023/12/25 07:35:06;;;;;;;2.30;2.03;;;;;;;9.57;89.89;99296.78;5075082;28;20262;-68
2023/12/25 07:37:32;;;;;;;2.30;1.50;;;;;;;9.74;89.17;99301.44;5077325;28;20196;-69
2023/12/25 07:39:59;;;;;;;0.60;0.60;;;;;;;9.85;89.24;99289.19;5073037;28;20754;-68
2023/12/25 07:42:26;;;;;;;0.90;0.90;;;;;;;9.95;89.51;99291.41;5072811;28;20196;-69
2023/12/25 07:44:53;;;;;;;0.50;0.50;;;;;;;10.08;88.83;99294.44;5072727;28;20671;-68
2023/12/25 07:47:19;;;;;;;0.97;0.97;;;;;;;10.25;86.72;99297.38;5077233;28;20211;-69
2023/12/25 07:49:46;;;;;;;0.50;0.50;;;;;;;10.42;85.68;99297.72;5072479;28;20253;-69
2023/12/25 07:52:14;;;;;;;1.20;0.87;;;;;;;10.61;83.95;99304.81;5073937;28;20239;-70
2023/12/25 07:54:41;;;;;;;0.80;0.80;;;;;;;10.71;83.33;99291.66;5073881;28;20192;-70
2023/12/25 07:57:08;;;;;;;0.67;0.67;;;;;;;11.02;82.42;99309.44;5074899;28;20668;-68
2023/12/25 07:59:35;;;;;;;1.43;1.20;;;;;;;11.21;79.79;99296.84;5072866;28;20664;-69
2023/12/25 08:02:02;;;;;;;3.13;1.30;;;;;;;11.59;77.41;99310.00;5072276;28;20200;-69
2023/12/25 08:04:29;;;;;;;0.67;0.67;;;;;;;11.80;75.96;99299.84;5072321;28;20197;-69
2023/12/25 08:06:55;;;;;;;1.37;1.30;;;;;;;11.95;75.38;99297.59;5071881;28;20204;-68
2023/12/25 08:09:24;;;;;;;0.70;0.70;;;;;;;12.03;75.45;99297.28;5072091;28;20208;-69
2023/12/25 08:11:50;;;;;;;0.80;0.80;;;;;;;12.14;76.02;99309.72;5075951;28;20219;-69
2023/12/25 08:14:17;;;;;;;1.23;1.23;;;;;;;12.24;76.50;99309.34;5071874;28;20204;-69
2023/12/25 08:16:44;;;;;;;0.60;0.60;;;;;;;12.37;75.13;99318.25;5074525;28;20295;-69
2023/12/25 08:19:11;;;;;;;1.00;1.00;;;;;;;12.54;75.46;99312.41;5071019;28;20204;-69
2023/12/25 08:21:37;;;;;;;0.90;0.90;;;;;;;12.71;75.32;99314.34;5071949;28;20196;-69
2023/12/25 08:24:05;;;;;;;0.70;0.70;;;;;;;12.78;74.55;99310.63;5071602;28;20195;-69
2023/12/25 08:26:35;;;;;;;1.20;1.20;;;;;;;12.89;73.73;99318.75;5073962;28;20341;-69
2023/12/25 08:29:01;;;;;;;4.03;3.37;;;;;;;13.09;71.18;99309.31;5071615;28;20294;-69
2023/12/25 08:31:28;;;;;;;6.50;3.13;;;;;;;13.22;71.35;99306.22;5071705;28;20204;-69
2023/12/25 08:33:55;;;;;;;1.60;1.60;;;;;;;13.36;70.16;99291.88;5071250;28;20200;-69
2023/12/25 08:36:22;;;;;;;2.93;1.40;;;;;;;13.45;69.59;99293.22;5074092;28;20192;-69
2023/12/25 08:38:49;;;;;;;3.73;2.40;;;;;;;13.63;67.12;99298.38;5072473;28;20196;-69
2023/12/25 08:41:15;;;;;;;1.40;1.40;;;;;;;13.82;65.78;99303.59;5075590;28;20192;-69
2023/12/25 08:43:43;;;;;;;0.63;0.63;;;;;;;13.81;64.29;99306.22;5072947;28;20259;-69
2023/12/25 08:46:10;;;;;;;1.83;0.80;;;;;;;13.85;66.26;99302.59;5080383;28;20199;-68
2023/12/25 08:48:37;;;;;;;2.20;0.97;;;;;;;13.88;66.34;99297.31;5072927;28;20269;-69
2023/12/25 08:51:04;;;;;;;2.00;1.57;;;;;;;13.97;67.55;99302.03;5073878;28;20280;-69
2023/12/25 08:53:30;;;;;;;1.10;1.10;;;;;;;14.11;68.33;99291.94;5075498;28;20264;-69
2023/12/25 08:55:58;;;;;;;1.93;1.83;;;;;;;14.27;67.42;99285.19;5074457;28;20201;-69
2023/12/25 08:58:25;;;;;;;2.17;0.80;;;;;;;14.44;66.18;99277.50;5071712;28;20275;-69
2023/12/25 09:00:53;;;;;;;1.87;1.60;;;;;;;14.53;67.12;99281.38;5071700;28;21246;-69
2023/12/25 09:03:20;;;;;;;1.10;1.10;;;;;;;14.58;65.53;99269.94;5070908;28;20199;-68
2023/12/25 09:05:46;;;;;;;2.30;1.00;;;;;;;14.78;63.96;99281.03;5077738;28;20252;-69
2023/12/25 09:08:13;;;;;;;2.53;2.00;;;;;;;14.89;64.98;99271.03;5073683;28;20749;-69
2023/12/25 09:10:40;;;;;;;1.47;1.37;;;;;;;15.05;64.32;99288.25;5071207;28;20252;-69
2023/12/25 09:13:07;;;;;;;0.97;0.87;;;;;;;15.18;63.23;99281.56;5071010;28;20194;-69
2023/12/25 09:15:33;;;;;;;1.87;1.77;;;;;;;15.33;64.63;99279.94;5074729;28;20200;-69
2023/12/25 09:18:01;;;;;;;1.13;1.03;;;;;;;15.37;63.71;99285.78;5071254;28;20626;-69
2023/12/25 09:20:29;;;;;;;1.20;1.20;;;;;;;15.37;66.26;99275.44;5070725;28;20411;-69
2023/12/25 09:22:56;;;;;;;1.93;1.80;;;;;;;15.44;64.40;99271.63;5070837;28;20216;-69
2023/12/25 09:25:23;;;;;;;3.07;2.77;;;;;;;15.59;63.62;99265.69;5071843;28;20600;-69
2023/12/25 09:27:49;;;;;;;1.40;1.30;;;;;;;15.67;64.06;99263.56;5070427;28;20215;-69
2023/12/25 09:30:16;;;;;;;2.97;1.77;;;;;;;15.74;63.29;99260.53;5071056;28;20203;-69
2023/12/25 09:32:43;;;;;;;1.70;1.60;;;;;;;15.79;64.57;99249.13;5070344;28;20222;-69
2023/12/25 09:35:12;;;;;;;1.40;1.40;;;;;;;15.73;64.96;99243.34;5071784;28;20254;-69
2023/12/25 09:37:40;;;;;;;0.93;0.93;;;;;;;15.63;64.91;99226.69;5070707;28;20196;-69
2023/12/25 09:40:08;;;;;;;6.33;1.50;;;;;;;15.75;65.01;99244.13;5073439;28;20207;-69
2023/12/25 09:42:35;;;;;;;1.00;1.00;;;;;;;15.67;64.96;99227.38;5070708;28;20668;-69
2023/12/25 09:45:03;;;;;;;1.27;1.27;;;;;;;15.77;64.81;99235.47;5070859;28;20196;-69
2023/12/25 09:47:30;;;;;;;1.60;1.60;;;;;;;15.91;67.67;99226.03;5070710;28;20286;-69
2023/12/25 09:49:58;;;;;;;2.07;1.47;;;;;;;16.00;68.47;99222.09;5072424;28;20207;-69
2023/12/25 09:52:26;;;;;;;0.90;0.90;;;;;;;16.10;67.10;99218.09;5078849;28;20227;-69
2023/12/25 09:54:53;;;;;;;1.43;1.43;;;;;;;16.21;66.98;99218.34;5077071;28;20196;-69
2023/12/25 09:57:22;;;;;;;1.10;1.10;;;;;;;16.39;64.65;99217.28;5073405;28;20646;-69
2023/12/25 09:59:52;;;;;;;2.20;1.40;;;;;;;16.53;64.17;99214.78;5077266;28;20660;-69
2023/12/25 10:02:22;;;;;;;1.57;1.47;;;;;;;16.68;63.57;99203.56;5085649;28;20203;-69
2023/12/25 10:04:49;;;;;;;1.20;1.17;;;;;;;16.83;64.51;99211.38;5077262;28;20328;-69
2023/12/25 10:07:20;;;;;;;2.30;1.83;;;;;;;16.78;62.71;99204.69;5077053;28;20196;-69
2023/12/25 10:09:49;;;;;;;0.90;0.90;;;;;;;16.85;64.63;99194.81;5077274;28;20212;-69
2023/12/25 10:12:15;;;;;;;2.13;1.00;;;;;;;17.00;64.22;99190.47;5077085;28;20290;-69
2023/12/25 10:14:42;;;;;;;1.23;1.23;;;;;;;17.13;63.87;99188.81;5081066;28;20195;-69
2023/12/25 10:17:09;;;;;;;1.30;1.30;;;;;;;17.23;62.56;99185.59;5077106;28;20204;-69
2023/12/25 10:19:51;;;;;;;0.80;0.80;;;;;;;17.36;61.08;99185.66;5079855;28;20675;-69
2023/12/25 10:22:30;;;;;;;0.80;0.80;;;;;;;17.43;60.44;99171.41;5076897;28;20288;-68
2023/12/25 10:25:05;;;;;;;5.40;1.03;;;;;;;17.75;55.73;99185.81;5080898;28;20200;-69
2023/12/25 10:27:32;;;;;;;1.13;0.93;;;;;;;17.83;55.93;99195.72;5076883;28;20261;-69
2023/12/25 10:30:03;;;;;;;0.90;0.90;;;;;;;17.84;56.54;99182.66;5076721;28;20273;-69
2023/12/25 10:32:30;;;;;;;0.87;0.87;;;;;;;17.86;54.90;99184.31;5075696;28;20212;-69
2023/12/25 10:35:10;;;;;;;0.83;0.83;;;;;;;17.99;54.93;99185.22;5076963;28;20282;-69
2023/12/25 10:37:38;;;;;;;1.23;0.90;;;;;;;18.18;52.27;99172.72;5077412;28;20286;-69
2023/12/25 10:40:20;;;;;;;0.87;0.87;;;;;;;18.20;51.71;99168.25;5077713;28;20188;-69
2023/12/25 10:42:48;;;;;;;0.87;0.87;;;;;;;18.19;51.88;99161.44;5079502;28;20234;-67
2023/12/25 10:45:21;;;;;;;1.50;0.87;;;;;;;18.25;52.67;99159.25;5076145;28;20289;-67
2023/12/25 10:47:49;;;;;;;1.37;1.30;;;;;;;18.32;51.82;99162.25;5081118;28;20221;-67
2023/12/25 10:50:16;;;;;;;0.87;0.87;;;;;;;18.38;52.11;99153.25;5076916;28;20662;-67
2023/12/25 10:52:45;;;;;;;1.37;1.37;;;;;;;18.45;51.94;99163.13;5075273;28;20216;-67
2023/12/25 10:55:13;;;;;;;0.90;0.90;;;;;;;18.47;53.94;99160.44;5076928;28;20203;-67
2023/12/25 10:57:41;;;;;;;0.90;0.90;;;;;;;18.49;52.83;99150.78;5077052;28;20213;-67
2023/12/25 11:00:10;;;;;;;0.97;0.90;;;;;;;18.49;52.88;99150.78;5076783;28;20208;-67
2023/12/25 11:02:39;;;;;;;0.97;0.97;;;;;;;18.49;55.03;99149.00;5072720;28;20201;-67
2023/12/25 11:05:08;;;;;;;0.90;0.90;;;;;;;18.47;52.86;99140.50;5073502;28;20247;-68
2023/12/25 11:07:35;;;;;;;1.77;0.70;;;;;;;18.58;52.53;99130.25;5073106;28;20209;-67
2023/12/25 11:10:03;;;;;;;0.70;0.70;;;;;;;18.67;51.36;99121.03;5072953;28;20214;-67
2023/12/25 11:12:30;;;;;;;3.17;1.10;;;;;;;18.67;51.79;99127.06;5073374;28;20195;-67
2023/12/25 11:14:58;;;;;;;0.80;0.80;;;;;;;18.74;52.02;99123.09;5074742;28;20209;-67
2023/12/25 11:17:27;;;;;;;0.70;0.70;;;;;;;18.80;52.16;99127.06;5073076;28;20202;-67
2023/12/25 11:19:53;;;;;;;1.20;1.20;;;;;;;18.93;51.03;99121.84;5073823;28;20217;-67
2023/12/25 11:22:28;;;;;;;1.50;1.10;;;;;;;18.86;50.95;99114.47;5072951;28;20255;-67
2023/12/25 11:24:54;;;;;;;2.07;0.97;;;;;;;18.93;50.57;99111.47;5072982;28;20309;-67
2023/12/25 11:27:21;;;;;;;0.80;0.80;;;;;;;18.99;50.37;99121.44;5073110;28;20266;-67
2023/12/25 11:29:49;;;;;;;2.03;0.80;;;;;;;18.91;49.20;99113.31;5072895;28;20718;-67
2023/12/25 11:32:18;;;;;;;0.93;0.93;;;;;;;18.83;50.55;99095.69;5074250;28;20200;-67
2023/12/25 11:34:49;;;;;;;0.90;0.90;;;;;;;19.13;50.90;99111.72;5072849;28;20580;-66
2023/12/25 11:37:20;;;;;;;1.03;1.03;;;;;;;19.09;51.91;99123.28;5072992;28;20217;-67